sensor_id;sensor_type;location;lat;lon;timestamp;pressure;altitude;pressure_sealevel;temperature;humidity
44751;BME280;30477;48.224;11.470;2023-02-10T00:01:12;97742.81;;;-2.59;69.10
44751;BME280;30477;48.224;11.470;2023-02-10T00:03:39;97744.47;;;-2.54;69.19
44751;BME280;30477;48.224;11.470;2023-02-10T00:06:05;97748.63;;;-2.50;68.92
44751;BME280;30477;48.224;11.470;2023-02-10T00:08:31;97749.41;;;-2.43;69.00
44751;BME280;30477;48.224;11.470;2023-02-10T00:11:02;97750.28;;;-2.49;68.79
44751;BME280;30477;48.224;11.470;2023-02-10T00:13:29;97752.19;;;-2.66;68.85
44751;BME280;30477;48.224;11.470;2023-02-10T00:15:56;97759.81;;;-2.69;69.17
44751;BME280;30477;48.224;11.470;2023-02-10T00:18:22;97760.56;;;-2.61;69.51
44751;BME280;30477;48.224;11.470;2023-02-10T00:20:47;97769.06;;;-2.65;69.07
44751;BME280;30477;48.224;11.470;2023-02-10T00:23:13;97766.59;;;-2.70;69.12
44751;BME280;30477;48.224;11.470;2023-02-10T00:25:38;97764.94;;;-2.72;69.16
44751;BME280;30477;48.224;11.470;2023-02-10T00:28:03;97765.81;;;-2.76;69.37
44751;BME280;30477;48.224;11.470;2023-02-10T00:30:30;97763.34;;;-2.84;69.28
44751;BME280;30477;48.224;11.470;2023-02-10T00:32:56;97767.53;;;-2.78;69.61
44751;BME280;30477;48.224;11.470;2023-02-10T00:35:22;97771.78;;;-2.82;69.84
44751;BME280;30477;48.224;11.470;2023-02-10T00:37:47;97775.19;;;-2.83;69.75
44751;BME280;30477;48.224;11.470;2023-02-10T00:40:12;97773.53;;;-2.87;69.72
44751;BME280;30477;48.224;11.470;2023-02-10T00:42:38;97784.50;;;-2.87;69.86
44751;BME280;30477;48.224;11.470;2023-02-10T00:45:04;97783.75;;;-2.95;69.73
44751;BME280;30477;48.224;11.470;2023-02-10T00:47:29;97782.06;;;-2.96;70.26
44751;BME280;30477;48.224;11.470;2023-02-10T00:49:55;97787.91;;;-2.91;70.10
44751;BME280;30477;48.224;11.470;2023-02-10T00:52:21;97798.03;;;-2.88;70.09
44751;BME280;30477;48.224;11.470;2023-02-10T00:54:46;97793.81;;;-2.90;70.35
44751;BME280;30477;48.224;11.470;2023-02-10T00:57:12;97796.34;;;-2.89;70.21
44751;BME280;30477;48.224;11.470;2023-02-10T00:59:37;97805.69;;;-2.94;70.39
44751;BME280;30477;48.224;11.470;2023-02-10T01:02:02;97798.03;;;-2.88;70.37
44751;BME280;30477;48.224;11.470;2023-02-10T01:04:28;97803.84;;;-2.76;70.36
44751;BME280;30477;48.224;11.470;2023-02-10T01:06:53;97801.19;;;-2.67;70.47
44751;BME280;30477;48.224;11.470;2023-02-10T01:09:18;97801.19;;;-2.64;70.35
44751;BME280;30477;48.224;11.470;2023-02-10T01:11:44;97795.22;;;-2.60;70.26
44751;BME280;30477;48.224;11.470;2023-02-10T01:14:09;97796.00;;;-2.56;70.19
44751;BME280;30477;48.224;11.470;2023-02-10T01:16:35;97801.06;;;-2.55;70.13
44751;BME280;30477;48.224;11.470;2023-02-10T01:19:01;97796.81;;;-2.53;70.00
44751;BME280;30477;48.224;11.470;2023-02-10T01:21:27;97796.81;;;-2.51;69.99
44751;BME280;30477;48.224;11.470;2023-02-10T01:23:52;97801.00;;;-2.49;69.93
44751;BME280;30477;48.224;11.470;2023-02-10T01:26:19;97796.00;;;-2.55;69.83
44751;BME280;30477;48.224;11.470;2023-02-10T01:28:44;97806.25;;;-2.64;69.78
44751;BME280;30477;48.224;11.470;2023-02-10T01:31:16;97802.91;;;-2.69;70.08
44751;BME280;30477;48.224;11.470;2023-02-10T01:33:42;97802.91;;;-2.68;69.97
44751;BME280;30477;48.224;11.470;2023-02-10T01:36:14;97802.06;;;-2.70;70.28
44751;BME280;30477;48.224;11.470;2023-02-10T01:38:40;97801.25;;;-2.73;70.12
44751;BME280;30477;48.224;11.470;2023-02-10T01:41:07;97803.84;;;-2.76;70.17
44751;BME280;30477;48.224;11.470;2023-02-10T01:43:33;97806.44;;;-2.84;70.52
44751;BME280;30477;48.224;11.470;2023-02-10T01:46:17;97813.97;;;-2.79;70.56
44751;BME280;30477;48.224;11.470;2023-02-10T01:48:43;97811.44;;;-2.76;70.67
44751;BME280;30477;48.224;11.470;2023-02-10T01:51:08;97813.13;;;-2.77;70.58
44751;BME280;30477;48.224;11.470;2023-02-10T01:53:33;97824.09;;;-2.76;70.59
44751;BME280;30477;48.224;11.470;2023-02-10T01:56:01;97829.19;;;-2.78;70.53
44751;BME280;30477;48.224;11.470;2023-02-10T01:58:29;97826.66;;;-2.79;70.61
44751;BME280;30477;48.224;11.470;2023-02-10T02:00:55;97825.88;;;-2.86;70.58
44751;BME280;30477;48.224;11.470;2023-02-10T02:03:21;97825.91;;;-2.88;70.74
44751;BME280;30477;48.224;11.470;2023-02-10T02:05:46;97823.28;;;-2.80;70.56
44751;BME280;30477;48.224;11.470;2023-02-10T02:08:30;97830.16;;;-2.93;70.75
44751;BME280;30477;48.224;11.470;2023-02-10T02:22:20;97838.59;;;-2.91;70.82
44751;BME280;30477;48.224;11.470;2023-02-10T02:25:17;97845.34;;;-2.90;70.53
44751;BME280;30477;48.224;11.470;2023-02-10T02:33:58;97848.78;;;-2.98;70.78
44751;BME280;30477;48.224;11.470;2023-02-10T02:36:33;97852.06;;;-2.86;71.05
44751;BME280;30477;48.224;11.470;2023-02-10T02:39:04;97833.38;;;-2.75;70.76
44751;BME280;30477;48.224;11.470;2023-02-10T02:41:31;97838.44;;;-2.75;70.61
44751;BME280;30477;48.224;11.470;2023-02-10T02:43:57;97840.13;;;-2.74;70.80
44751;BME280;30477;48.224;11.470;2023-02-10T02:47:01;97836.69;;;-2.67;70.60
44751;BME280;30477;48.224;11.470;2023-02-10T02:49:38;97840.91;;;-2.69;70.48
44751;BME280;30477;48.224;11.470;2023-02-10T02:52:14;97829.94;;;-2.68;70.39
44751;BME280;30477;48.224;11.470;2023-02-10T02:55:00;97829.97;;;-2.71;70.00
44751;BME280;30477;48.224;11.470;2023-02-10T02:57:46;97828.22;;;-2.66;70.37
44751;BME280;30477;48.224;11.470;2023-02-10T03:00:27;97830.78;;;-2.69;70.18
44751;BME280;30477;48.224;11.470;2023-02-10T03:02:54;97835.06;;;-2.74;70.05
44751;BME280;30477;48.224;11.470;2023-02-10T03:05:27;97833.31;;;-2.68;70.34
44751;BME280;30477;48.224;11.470;2023-02-10T03:07:54;97840.03;;;-2.62;70.18
44751;BME280;30477;48.224;11.470;2023-02-10T03:10:20;97839.25;;;-2.73;69.98
44751;BME280;30477;48.224;11.470;2023-02-10T03:12:46;97834.34;;;-2.86;69.88
44751;BME280;30477;48.224;11.470;2023-02-10T03:15:12;97831.88;;;-2.95;70.22
44751;BME280;30477;48.224;11.470;2023-02-10T03:17:37;97846.25;;;-2.98;69.93
44751;BME280;30477;48.224;11.470;2023-02-10T03:20:03;97843.75;;;-3.03;70.00
44751;BME280;30477;48.224;11.470;2023-02-10T03:22:29;97839.63;;;-3.12;70.22
44751;BME280;30477;48.224;11.470;2023-02-10T03:24:54;97835.38;;;-3.11;70.52
44751;BME280;30477;48.224;11.470;2023-02-10T03:27:19;97842.16;;;-3.10;70.49
44751;BME280;30477;48.224;11.470;2023-02-10T03:29:44;97846.28;;;-3.01;71.00
44751;BME280;30477;48.224;11.470;2023-02-10T03:32:11;97841.94;;;-2.87;70.71
44751;BME280;30477;48.224;11.470;2023-02-10T03:34:36;97848.03;;;-3.11;70.30
44751;BME280;30477;48.224;11.470;2023-02-10T03:37:01;97847.25;;;-3.16;70.64
44751;BME280;30477;48.224;11.470;2023-02-10T03:39:27;97848.13;;;-3.22;70.67
44751;BME280;30477;48.224;11.470;2023-02-10T03:41:52;97851.50;;;-3.21;70.80
44751;BME280;30477;48.224;11.470;2023-02-10T03:44:19;97849.84;;;-3.24;70.83
44751;BME280;30477;48.224;11.470;2023-02-10T03:46:44;97848.97;;;-3.21;70.82
44751;BME280;30477;48.224;11.470;2023-02-10T03:49:09;97843.03;;;-3.16;70.87
44751;BME280;30477;48.224;11.470;2023-02-10T03:51:35;97831.13;;;-3.08;70.80
44751;BME280;30477;48.224;11.470;2023-02-10T03:54:00;97841.19;;;-2.97;70.61
44751;BME280;30477;48.224;11.470;2023-02-10T03:56:26;97836.94;;;-2.92;70.72
44751;BME280;30477;48.224;11.470;2023-02-10T03:58:51;97847.06;;;-2.92;70.43
44751;BME280;30477;48.224;11.470;2023-02-10T04:01:17;97848.72;;;-2.91;70.39
44751;BME280;30477;48.224;11.470;2023-02-10T04:03:42;97847.91;;;-2.91;70.43
44751;BME280;30477;48.224;11.470;2023-02-10T04:06:08;97843.66;;;-2.91;70.33
44751;BME280;30477;48.224;11.470;2023-02-10T04:08:34;97847.13;;;-3.01;70.40
44751;BME280;30477;48.224;11.470;2023-02-10T04:10:59;97847.06;;;-2.95;70.33
44751;BME280;30477;48.224;11.470;2023-02-10T04:13:25;97853.84;;;-2.94;70.31
44751;BME280;30477;48.224;11.470;2023-02-10T04:16:04;97858.91;;;-2.94;70.26
44751;BME280;30477;48.224;11.470;2023-02-10T04:18:31;97858.06;;;-2.96;70.16
44751;BME280;30477;48.224;11.470;2023-02-10T04:20:58;97866.50;;;-2.98;70.18
44751;BME280;30477;48.224;11.470;2023-02-10T04:23:24;97874.16;;;-3.00;70.07
44751;BME280;30477;48.224;11.470;2023-02-10T04:25:49;97872.34;;;-2.89;70.37
44751;BME280;30477;48.224;11.470;2023-02-10T04:28:14;97870.50;;;-2.71;70.12
44751;BME280;30477;48.224;11.470;2023-02-10T04:30:39;97873.91;;;-2.72;70.12
44751;BME280;30477;48.224;11.470;2023-02-10T04:33:05;97883.28;;;-2.80;69.40
44751;BME280;30477;48.224;11.470;2023-02-10T04:35:30;97886.78;;;-2.98;69.56
44751;BME280;30477;48.224;11.470;2023-02-10T04:37:55;97888.63;;;-3.17;69.61
44751;BME280;30477;48.224;11.470;2023-02-10T04:40:21;97893.72;;;-3.23;69.76
44751;BME280;30477;48.224;11.470;2023-02-10T04:42:47;97897.94;;;-3.26;70.01
44751;BME280;30477;48.224;11.470;2023-02-10T04:45:12;97899.63;;;-3.21;70.09
44751;BME280;30477;48.224;11.470;2023-02-10T04:47:38;97892.06;;;-3.26;70.00
44751;BME280;30477;48.224;11.470;2023-02-10T04:50:03;97893.75;;;-3.27;70.20
44751;BME280;30477;48.224;11.470;2023-02-10T04:52:29;97888.66;;;-3.23;69.95
44751;BME280;30477;48.224;11.470;2023-02-10T04:54:54;97893.81;;;-3.36;69.75
44751;BME280;30477;48.224;11.470;2023-02-10T04:57:20;97893.03;;;-3.44;69.74
44751;BME280;30477;48.224;11.470;2023-02-10T04:59:45;97883.75;;;-3.47;69.86
44751;BME280;30477;48.224;11.470;2023-02-10T05:02:11;97888.81;;;-3.45;69.95
44751;BME280;30477;48.224;11.470;2023-02-10T05:04:36;97893.88;;;-3.47;69.85
44751;BME280;30477;48.224;11.470;2023-02-10T05:07:02;97900.66;;;-3.52;69.84
44751;BME280;30477;48.224;11.470;2023-02-10T05:09:27;97898.16;;;-3.55;70.03
44751;BME280;30477;48.224;11.470;2023-02-10T05:11:53;97901.50;;;-3.51;70.19
44751;BME280;30477;48.224;11.470;2023-02-10T05:14:18;97906.63;;;-3.60;70.22
44751;BME280;30477;48.224;11.470;2023-02-10T05:16:43;97911.69;;;-3.60;70.12
44751;BME280;30477;48.224;11.470;2023-02-10T05:19:09;97906.63;;;-3.70;69.99
44751;BME280;30477;48.224;11.470;2023-02-10T05:21:35;97914.25;;;-3.71;70.26
44751;BME280;30477;48.224;11.470;2023-02-10T05:24:00;97915.06;;;-3.68;69.80
44751;BME280;30477;48.224;11.470;2023-02-10T05:26:25;97910.00;;;-3.68;69.97
44751;BME280;30477;48.224;11.470;2023-02-10T05:28:51;97908.38;;;-3.75;70.02
44751;BME280;30477;48.224;11.470;2023-02-10T05:31:16;97916.00;;;-3.84;70.14
44751;BME280;30477;48.224;11.470;2023-02-10T05:33:41;97911.75;;;-3.79;70.69
44751;BME280;30477;48.224;11.470;2023-02-10T05:36:07;97911.75;;;-3.77;70.43
44751;BME280;30477;48.224;11.470;2023-02-10T05:38:32;97917.66;;;-3.75;70.19
44751;BME280;30477;48.224;11.470;2023-02-10T05:40:58;97923.53;;;-3.75;70.20
44751;BME280;30477;48.224;11.470;2023-02-10T05:43:23;97928.59;;;-3.73;70.25
44751;BME280;30477;48.224;11.470;2023-02-10T05:45:48;97924.38;;;-3.74;69.92
44751;BME280;30477;48.224;11.470;2023-02-10T05:48:14;97932.84;;;-3.80;70.08
44751;BME280;30477;48.224;11.470;2023-02-10T05:50:39;97930.28;;;-3.71;70.25
44751;BME280;30477;48.224;11.470;2023-02-10T05:53:05;97937.00;;;-3.70;69.92
44751;BME280;30477;48.224;11.470;2023-02-10T05:55:31;97937.00;;;-3.68;70.13
44751;BME280;30477;48.224;11.470;2023-02-10T05:57:57;97936.19;;;-3.67;70.03
44751;BME280;30477;48.224;11.470;2023-02-10T06:00:22;97941.22;;;-3.65;70.19
44751;BME280;30477;48.224;11.470;2023-02-10T06:02:48;97947.09;;;-3.60;70.05
44751;BME280;30477;48.224;11.470;2023-02-10T06:05:14;97943.72;;;-3.65;70.17
44751;BME280;30477;48.224;11.470;2023-02-10T06:07:39;97946.28;;;-3.64;70.23
44751;BME280;30477;48.224;11.470;2023-02-10T06:10:05;97942.06;;;-3.67;70.06
44751;BME280;30477;48.224;11.470;2023-02-10T06:12:31;97937.03;;;-3.73;70.48
44751;BME280;30477;48.224;11.470;2023-02-10T06:14:56;97941.25;;;-3.75;70.32
44751;BME280;30477;48.224;11.470;2023-02-10T06:17:22;97937.03;;;-3.73;70.57
44751;BME280;30477;48.224;11.470;2023-02-10T06:19:47;97947.13;;;-3.70;70.64
44751;BME280;30477;48.224;11.470;2023-02-10T06:22:13;97952.19;;;-3.67;70.78
44751;BME280;30477;48.224;11.470;2023-02-10T06:24:38;97947.13;;;-3.65;70.68
44751;BME280;30477;48.224;11.470;2023-02-10T06:27:04;97948.81;;;-3.62;70.76
44751;BME280;30477;48.224;11.470;2023-02-10T06:29:29;97956.38;;;-3.59;70.80
44751;BME280;30477;48.224;11.470;2023-02-10T06:31:54;97963.94;;;-3.53;71.03
44751;BME280;30477;48.224;11.470;2023-02-10T06:34:20;97959.72;;;-3.50;70.82
44751;BME280;30477;48.224;11.470;2023-02-10T06:36:45;97963.91;;;-3.47;70.98
44751;BME280;30477;48.224;11.470;2023-02-10T06:39:11;97974.00;;;-3.41;71.19
44751;BME280;30477;48.224;11.470;2023-02-10T06:41:36;97970.59;;;-3.37;70.95
44751;BME280;30477;48.224;11.470;2023-02-10T06:44:01;97974.03;;;-3.47;70.80
44751;BME280;30477;48.224;11.470;2023-02-10T06:46:27;97979.06;;;-3.41;70.77
44751;BME280;30477;48.224;11.470;2023-02-10T06:48:52;97974.00;;;-3.41;70.55
44751;BME280;30477;48.224;11.470;2023-02-10T06:51:18;97978.22;;;-3.35;70.82
44751;BME280;30477;48.224;11.470;2023-02-10T06:53:43;97979.03;;;-3.35;71.13
44751;BME280;30477;48.224;11.470;2023-02-10T06:56:10;97992.53;;;-3.30;70.85
44751;BME280;30477;48.224;11.470;2023-02-10T06:58:35;97984.88;;;-3.20;70.69
44751;BME280;30477;48.224;11.470;2023-02-10T07:01:06;97987.41;;;-3.23;70.63
44751;BME280;30477;48.224;11.470;2023-02-10T07:03:32;97994.16;;;-3.19;70.58
44751;BME280;30477;48.224;11.470;2023-02-10T07:05:57;97993.25;;;-3.06;70.62
44751;BME280;30477;48.224;11.470;2023-02-10T07:08:22;97989.03;;;-3.09;70.17
44751;BME280;30477;48.224;11.470;2023-02-10T07:10:48;97998.38;;;-3.18;69.97
44751;BME280;30477;48.224;11.470;2023-02-10T07:13:13;98005.09;;;-3.14;69.82
44751;BME280;30477;48.224;11.470;2023-02-10T07:15:38;98014.38;;;-3.10;70.29
44751;BME280;30477;48.224;11.470;2023-02-10T07:18:04;98010.13;;;-3.07;69.94
44751;BME280;30477;48.224;11.470;2023-02-10T07:20:29;98010.94;;;-3.03;69.77
44751;BME280;30477;48.224;11.470;2023-02-10T07:22:54;98015.09;;;-2.91;69.89
44751;BME280;30477;48.224;11.470;2023-02-10T07:25:20;98014.28;;;-2.96;69.70
44751;BME280;30477;48.224;11.470;2023-02-10T07:27:45;98024.44;;;-2.99;69.61
44751;BME280;30477;48.224;11.470;2023-02-10T07:30:11;98024.44;;;-3.01;69.47
44751;BME280;30477;48.224;11.470;2023-02-10T07:32:37;98025.25;;;-2.94;69.76
44751;BME280;30477;48.224;11.470;2023-02-10T07:35:03;98029.38;;;-2.79;69.94
44751;BME280;30477;48.224;11.470;2023-02-10T07:37:29;98028.50;;;-2.71;69.52
44751;BME280;30477;48.224;11.470;2023-02-10T07:39:54;98015.75;;;-2.63;69.46
44751;BME280;30477;48.224;11.470;2023-02-10T07:42:20;98025.88;;;-2.61;69.42
44751;BME280;30477;48.224;11.470;2023-02-10T07:44:45;98029.22;;;-2.52;69.27
44751;BME280;30477;48.224;11.470;2023-02-10T07:47:10;98030.00;;;-2.43;69.33
44751;BME280;30477;48.224;11.470;2023-02-10T07:49:36;98035.94;;;-2.51;68.90
44751;BME280;30477;48.224;11.470;2023-02-10T07:52:01;98039.34;;;-2.55;68.68
44751;BME280;30477;48.224;11.470;2023-02-10T07:54:27;98048.66;;;-2.58;68.65
44751;BME280;30477;48.224;11.470;2023-02-10T07:56:53;98049.47;;;-2.49;69.03
44751;BME280;30477;48.224;11.470;2023-02-10T07:59:18;98050.22;;;-2.37;68.91
44751;BME280;30477;48.224;11.470;2023-02-10T08:01:43;98046.00;;;-2.38;68.54
44751;BME280;30477;48.224;11.470;2023-02-10T08:04:10;98050.28;;;-2.43;68.47
44751;BME280;30477;48.224;11.470;2023-02-10T08:06:35;98046.03;;;-2.45;68.63
44751;BME280;30477;48.224;11.470;2023-02-10T08:09:01;98047.63;;;-2.28;68.70
44751;BME280;30477;48.224;11.470;2023-02-10T08:11:27;98049.28;;;-2.27;68.49
44751;BME280;30477;48.224;11.470;2023-02-10T08:13:52;98045.88;;;-2.20;68.38
44751;BME280;30477;48.224;11.470;2023-02-10T08:16:17;98039.88;;;-2.11;68.61
44751;BME280;30477;48.224;11.470;2023-02-10T08:18:43;98037.28;;;-2.07;68.58
44751;BME280;30477;48.224;11.470;2023-02-10T08:21:08;98027.13;;;-2.05;68.46
44751;BME280;30477;48.224;11.470;2023-02-10T08:23:34;98035.50;;;-1.97;68.26
44751;BME280;30477;48.224;11.470;2023-02-10T08:26:08;98035.47;;;-1.91;68.10
44751;BME280;30477;48.224;11.470;2023-02-10T08:28:36;98039.59;;;-1.84;68.20
44751;BME280;30477;48.224;11.470;2023-02-10T08:31:03;98034.47;;;-1.77;68.09
44751;BME280;30477;48.224;11.470;2023-02-10T08:33:28;98034.41;;;-1.74;68.01
44751;BME280;30477;48.224;11.470;2023-02-10T08:35:55;98036.06;;;-1.67;68.02
44751;BME280;30477;48.224;11.470;2023-02-10T08:38:20;98040.25;;;-1.61;67.81
44751;BME280;30477;48.224;11.470;2023-02-10T08:40:54;98041.03;;;-1.58;67.75
44751;BME280;30477;48.224;11.470;2023-02-10T08:43:19;98039.25;;;-1.50;67.69
44751;BME280;30477;48.224;11.470;2023-02-10T08:45:44;98042.53;;;-1.41;67.68
44751;BME280;30477;48.224;11.470;2023-02-10T08:48:10;98041.63;;;-1.36;67.71
44751;BME280;30477;48.224;11.470;2023-02-10T08:50:36;98049.13;;;-1.27;67.64
44751;BME280;30477;48.224;11.470;2023-02-10T08:53:08;98044.81;;;-1.18;67.59
44751;BME280;30477;48.224;11.470;2023-02-10T08:55:34;98032.03;;;-1.12;67.36
44751;BME280;30477;48.224;11.470;2023-02-10T08:58:00;98038.69;;;-1.04;67.37
44751;BME280;30477;48.224;11.470;2023-02-10T09:00:25;98050.47;;;-0.98;67.20
44751;BME280;30477;48.224;11.470;2023-02-10T09:02:51;98037.69;;;-0.92;67.18
44751;BME280;30477;48.224;11.470;2023-02-10T09:05:16;98037.63;;;-0.87;66.82
44751;BME280;30477;48.224;11.470;2023-02-10T09:07:44;98048.47;;;-0.76;66.94
44751;BME280;30477;48.224;11.470;2023-02-10T09:10:10;98052.63;;;-0.69;66.62
44751;BME280;30477;48.224;11.470;2023-02-10T09:12:37;98055.91;;;-0.62;66.47
44751;BME280;30477;48.224;11.470;2023-02-10T09:15:03;98054.19;;;-0.60;66.35
44751;BME280;30477;48.224;11.470;2023-02-10T09:17:29;98049.84;;;-0.53;66.20
44751;BME280;30477;48.224;11.470;2023-02-10T09:19:54;98042.13;;;-0.46;65.99
44751;BME280;30477;48.224;11.470;2023-02-10T09:22:19;98047.97;;;-0.42;65.93
44751;BME280;30477;48.224;11.470;2023-02-10T09:24:45;98051.34;;;-0.40;65.47
44751;BME280;30477;48.224;11.470;2023-02-10T09:27:12;98048.78;;;-0.38;65.35
44751;BME280;30477;48.224;11.470;2023-02-10T09:29:37;98056.22;;;-0.25;65.51
44751;BME280;30477;48.224;11.470;2023-02-10T09:32:03;98065.44;;;-0.19;65.30
44751;BME280;30477;48.224;11.470;2023-02-10T09:34:28;98062.84;;;-0.16;65.28
44751;BME280;30477;48.224;11.470;2023-02-10T09:36:55;98064.47;;;-0.10;64.97
44751;BME280;30477;48.224;11.470;2023-02-10T09:39:22;98065.31;;;-0.10;64.95
44751;BME280;30477;48.224;11.470;2023-02-10T09:42:23;98072.06;;;-0.09;64.68
44751;BME280;30477;48.224;11.470;2023-02-10T09:44:56;98071.13;;;-0.02;64.60
44751;BME280;30477;48.224;11.470;2023-02-10T09:47:51;98071.84;;;0.05;64.54
44751;BME280;30477;48.224;11.470;2023-02-10T09:50:30;98074.28;;;0.11;64.41
44751;BME280;30477;48.224;11.470;2023-02-10T09:53:12;98080.09;;;0.18;64.44
44751;BME280;30477;48.224;11.470;2023-02-10T09:55:44;98078.28;;;0.26;64.35
44751;BME280;30477;48.224;11.470;2023-02-10T09:58:15;98078.06;;;0.38;64.48
44751;BME280;30477;48.224;11.470;2023-02-10T10:00:43;98069.44;;;0.46;64.51
44751;BME280;30477;48.224;11.470;2023-02-10T10:03:15;98075.19;;;0.55;64.38
44751;BME280;30477;48.224;11.470;2023-02-10T10:08:22;98064.81;;;0.66;64.24
44751;BME280;30477;48.224;11.470;2023-02-10T10:10:50;98062.22;;;0.68;64.09
44751;BME280;30477;48.224;11.470;2023-02-10T10:13:24;98067.94;;;0.79;64.30
44751;BME280;30477;48.224;11.470;2023-02-10T10:16:19;98058.41;;;0.89;64.15
44751;BME280;30477;48.224;11.470;2023-02-10T10:19:06;98060.09;;;0.90;63.93
44751;BME280;30477;48.224;11.470;2023-02-10T10:21:39;98059.91;;;0.99;64.01
44751;BME280;30477;48.224;11.470;2023-02-10T10:24:38;98057.06;;;1.11;63.66
44751;BME280;30477;48.224;11.470;2023-02-10T10:27:41;98047.28;;;1.32;63.80
44751;BME280;30477;48.224;11.470;2023-02-10T10:30:17;98050.25;;;1.52;63.67
44751;BME280;30477;48.224;11.470;2023-02-10T10:32:45;98048.34;;;1.60;62.99
44751;BME280;30477;48.224;11.470;2023-02-10T10:35:15;98049.88;;;1.68;62.91
44751;BME280;30477;48.224;11.470;2023-02-10T10:37:41;98047.84;;;1.82;62.92
44751;BME280;30477;48.224;11.470;2023-02-10T10:40:13;98042.53;;;1.91;62.74
44751;BME280;30477;48.224;11.470;2023-02-10T10:42:55;98037.00;;;2.08;62.54
44751;BME280;30477;48.224;11.470;2023-02-10T10:45:39;98030.00;;;2.15;62.26
44751;BME280;30477;48.224;11.470;2023-02-10T10:48:14;98027.94;;;2.29;62.13
44751;BME280;30477;48.224;11.470;2023-02-10T10:50:40;98033.06;;;2.29;61.79
44751;BME280;30477;48.224;11.470;2023-02-10T10:53:20;98028.38;;;2.43;61.80
44751;BME280;30477;48.224;11.470;2023-02-10T10:55:50;98021.13;;;2.61;61.48
44751;BME280;30477;48.224;11.470;2023-02-10T10:58:23;98011.91;;;2.54;60.96
44751;BME280;30477;48.224;11.470;2023-02-10T11:00:52;98010.88;;;2.61;60.90
44751;BME280;30477;48.224;11.470;2023-02-10T11:03:17;98005.84;;;2.88;61.10
44751;BME280;30477;48.224;11.470;2023-02-10T11:05:44;98004.00;;;2.93;60.53
44751;BME280;30477;48.224;11.470;2023-02-10T11:08:26;98008.78;;;3.05;60.01
44751;BME280;30477;48.224;11.470;2023-02-10T11:10:55;97991.69;;;3.05;59.55
44751;BME280;30477;48.224;11.470;2023-02-10T11:13:28;97989.97;;;3.06;59.40
44751;BME280;30477;48.224;11.470;2023-02-10T11:16:05;97989.72;;;3.15;59.35
44751;BME280;30477;48.224;11.470;2023-02-10T11:18:31;97987.75;;;3.23;59.27
44751;BME280;30477;48.224;11.470;2023-02-10T11:21:00;97986.53;;;3.35;58.80
44751;BME280;30477;48.224;11.470;2023-02-10T11:23:26;97982.56;;;3.25;58.35
44751;BME280;30477;48.224;11.470;2023-02-10T11:26:03;97981.75;;;3.24;58.54
44751;BME280;30477;48.224;11.470;2023-02-10T11:28:30;97980.56;;;3.35;58.30
44751;BME280;30477;48.224;11.470;2023-02-10T11:31:05;97977.97;;;3.36;58.18
44751;BME280;30477;48.224;11.470;2023-02-10T11:33:33;97974.16;;;3.48;58.06
44751;BME280;30477;48.224;11.470;2023-02-10T11:36:09;97961.97;;;3.56;57.85
44751;BME280;30477;48.224;11.470;2023-02-10T11:38:38;97960.88;;;3.63;57.24
44751;BME280;30477;48.224;11.470;2023-02-10T11:41:07;97959.13;;;3.65;57.45
44751;BME280;30477;48.224;11.470;2023-02-10T11:43:46;97962.56;;;3.64;57.25
44751;BME280;30477;48.224;11.470;2023-02-10T11:46:24;97955.84;;;3.60;57.33
44751;BME280;30477;48.224;11.470;2023-02-10T11:49:02;97956.13;;;3.78;57.43
44751;BME280;30477;48.224;11.470;2023-02-10T11:51:29;97951.78;;;3.80;57.00
44751;BME280;30477;48.224;11.470;2023-02-10T11:53:55;97946.03;;;3.98;57.12
44751;BME280;30477;48.224;11.470;2023-02-10T12:06:05;97936.72;;;4.21;56.32
44751;BME280;30477;48.224;11.470;2023-02-10T12:08:48;97936.16;;;4.36;56.00
44751;BME280;30477;48.224;11.470;2023-02-10T12:11:31;97937.72;;;4.40;55.63
44751;BME280;30477;48.224;11.470;2023-02-10T12:17:02;97931.03;;;4.36;55.83
44751;BME280;30477;48.224;11.470;2023-02-10T12:19:50;97935.34;;;4.36;55.36
44751;BME280;30477;48.224;11.470;2023-02-10T12:26:04;97926.69;;;4.62;54.77
44751;BME280;30477;48.224;11.470;2023-02-10T12:31:51;97919.91;;;4.61;54.45
44751;BME280;30477;48.224;11.470;2023-02-10T12:34:29;97915.41;;;4.66;54.30
44751;BME280;30477;48.224;11.470;2023-02-10T12:39:36;97916.88;;;4.73;53.82
44751;BME280;30477;48.224;11.470;2023-02-10T12:42:26;97921.22;;;4.71;53.68
44751;BME280;30477;48.224;11.470;2023-02-10T12:45:07;97917.16;;;4.65;53.34
44751;BME280;30477;48.224;11.470;2023-02-10T12:50:30;97916.13;;;4.47;52.88
44751;BME280;30477;48.224;11.470;2023-02-10T12:53:05;97913.06;;;4.38;52.95
44751;BME280;30477;48.224;11.470;2023-02-10T12:58:25;97910.00;;;4.52;53.12
44751;BME280;30477;48.224;11.470;2023-02-10T13:01:10;97904.97;;;4.48;53.06
44751;BME280;30477;48.224;11.470;2023-02-10T13:03:39;97911.44;;;4.59;53.40
44751;BME280;30477;48.224;11.470;2023-02-10T13:09:13;97897.59;;;4.63;53.35
44751;BME280;30477;48.224;11.470;2023-02-10T13:14:26;97901.91;;;4.62;53.10
44751;BME280;30477;48.224;11.470;2023-02-10T13:16:55;97898.91;;;4.73;53.16
44751;BME280;30477;48.224;11.470;2023-02-10T13:22:17;97899.47;;;4.81;52.70
44751;BME280;30477;48.224;11.470;2023-02-10T13:25:12;97897.13;;;4.75;52.44
44751;BME280;30477;48.224;11.470;2023-02-10T13:31:06;97893.03;;;4.47;52.36
44751;BME280;30477;48.224;11.470;2023-02-10T13:36:21;97892.19;;;4.47;52.81
44751;BME280;30477;48.224;11.470;2023-02-10T13:38:57;97890.47;;;4.47;52.81
44751;BME280;30477;48.224;11.470;2023-02-10T13:41:26;97887.97;;;4.46;52.86
44751;BME280;30477;48.224;11.470;2023-02-10T13:46:41;97887.13;;;4.45;52.89
44751;BME280;30477;48.224;11.470;2023-02-10T13:49:15;97891.13;;;4.53;53.12
44751;BME280;30477;48.224;11.470;2023-02-10T13:51:42;97883.34;;;4.56;53.03
44751;BME280;30477;48.224;11.470;2023-02-10T13:54:30;97894.59;;;4.52;53.01
44751;BME280;30477;48.224;11.470;2023-02-10T13:56:56;97892.28;;;4.45;53.02
44751;BME280;30477;48.224;11.470;2023-02-10T13:59:26;97883.72;;;4.45;52.91
44751;BME280;30477;48.224;11.470;2023-02-10T14:06:49;97885.41;;;4.46;52.73
44751;BME280;30477;48.224;11.470;2023-02-10T14:09:31;97887.78;;;4.51;52.82
44751;BME280;30477;48.224;11.470;2023-02-10T14:11:58;97884.34;;;4.52;53.01